createdAt,value
2022-11-05T00:00:37.891Z,7.80
2022-11-05T00:03:24.235Z,7.70
2022-11-05T00:06:12.510Z,7.70
2022-11-05T00:08:59.674Z,7.60
2022-11-05T00:11:45.635Z,7.60
2022-11-05T00:14:32.301Z,7.60
2022-11-05T00:16:59.508Z,7.60
2022-11-05T00:19:26.680Z,7.60
2022-11-05T00:22:12.165Z,7.60
2022-11-05T00:24:57.906Z,7.70
2022-11-05T00:27:25.060Z,7.50
2022-11-05T00:29:52.234Z,7.50
2022-11-05T00:32:19.405Z,7.50
2022-11-05T00:34:46.483Z,7.50
2022-11-05T00:37:16.637Z,7.50
2022-11-05T00:39:43.751Z,7.50
2022-11-05T00:42:29.287Z,7.50
2022-11-05T00:45:02.202Z,7.60
2022-11-05T00:47:50.490Z,7.40
2022-11-05T00:50:19.401Z,7.40
2022-11-05T00:52:58.051Z,7.40
2022-11-05T00:55:40.174Z,7.40
2022-11-05T00:58:18.709Z,7.30
2022-11-05T01:00:54.391Z,7.30
2022-11-05T01:03:27.060Z,7.30
2022-11-05T01:05:56.945Z,7.30
2022-11-05T01:08:25.997Z,7.30
2022-11-05T01:10:58.286Z,7.30
2022-11-05T01:13:30.450Z,7.20
2022-11-05T01:15:57.667Z,7.20
2022-11-05T01:18:25.755Z,7.20
2022-11-05T01:20:53.176Z,7.20
2022-11-05T01:23:20.936Z,7.20
2022-11-05T01:25:48.431Z,7.20
2022-11-05T01:28:15.602Z,7.10
2022-11-05T01:30:42.819Z,7.30
2022-11-05T01:33:10.355Z,7.10
2022-11-05T01:35:39.310Z,7.20
2022-11-05T01:38:06.489Z,7.20
2022-11-05T01:40:33.813Z,7.20
2022-11-05T01:43:00.963Z,7.10
2022-11-05T01:45:29.006Z,7.10
2022-11-05T01:47:59.265Z,7.00
2022-11-05T01:50:43.298Z,7.20
2022-11-05T01:53:43.870Z,7.20
2022-11-05T01:56:18.889Z,7.20
2022-11-05T01:58:56.782Z,7.40
2022-11-05T02:01:24.526Z,7.50
2022-11-05T02:03:55.419Z,7.60
2022-11-05T02:06:22.574Z,7.70
2022-11-05T02:09:08.969Z,7.80
2022-11-05T02:11:36.110Z,7.90
2022-11-05T02:14:03.399Z,7.90
2022-11-05T02:16:50.821Z,8.00
2022-11-05T02:19:53.512Z,8.10
2022-11-05T02:22:41.675Z,8.10
2022-11-05T02:25:24.916Z,8.20
2022-11-05T02:28:18.182Z,8.20
2022-11-05T02:31:02.806Z,8.30
2022-11-05T02:33:57.169Z,8.30
2022-11-05T02:36:34.681Z,8.30
2022-11-05T02:39:42.703Z,8.30
2022-11-05T02:42:13.294Z,8.40
2022-11-05T02:44:57.201Z,8.40
2022-11-05T02:47:37.829Z,8.50
2022-11-05T02:50:35.965Z,8.60
2022-11-05T02:53:19.740Z,8.60
2022-11-05T02:56:31.253Z,8.60
2022-11-05T02:58:58.333Z,8.70
2022-11-05T03:01:25.473Z,8.70
2022-11-05T03:03:57.379Z,8.80
2022-11-05T03:06:39.182Z,8.70
2022-11-05T03:09:31.313Z,8.70
2022-11-05T03:12:13.635Z,8.80
2022-11-05T03:14:55.995Z,8.80
2022-11-05T03:17:23.040Z,8.80
2022-11-05T03:20:00.179Z,8.80
2022-11-05T03:22:36.845Z,8.80
2022-11-05T03:25:12.270Z,8.80
2022-11-05T03:27:46.183Z,8.80
2022-11-05T03:30:15.958Z,8.80
2022-11-05T03:32:50.155Z,8.80
2022-11-05T03:35:25.551Z,8.70
2022-11-05T03:37:58.450Z,9.00
2022-11-05T03:40:26.263Z,8.70
2022-11-05T03:42:56.568Z,8.80
2022-11-05T03:45:37.365Z,8.70
2022-11-05T03:48:06.968Z,8.70
2022-11-05T03:51:02.634Z,8.70
2022-11-05T03:53:36.299Z,8.80
2022-11-05T03:56:11.831Z,8.80
2022-11-05T03:58:44.897Z,8.70
2022-11-05T04:01:12.566Z,8.70
2022-11-05T04:03:39.619Z,8.80
2022-11-05T04:06:28.318Z,8.60
2022-11-05T04:09:14.294Z,8.60
2022-11-05T04:11:59.909Z,8.60
2022-11-05T04:14:26.982Z,8.60
2022-11-05T04:17:12.651Z,8.70
2022-11-05T04:20:00.951Z,8.80
2022-11-05T04:22:49.655Z,8.70
2022-11-05T04:25:18.119Z,8.80
2022-11-05T04:27:46.101Z,8.90
2022-11-05T04:30:21.841Z,8.80
2022-11-05T04:33:13.911Z,8.80
2022-11-05T04:35:48.351Z,8.80
2022-11-05T04:38:18.337Z,8.80
2022-11-05T04:40:46.466Z,8.80
2022-11-05T04:43:19.469Z,8.90
2022-11-05T04:45:46.884Z,8.80
2022-11-05T04:48:13.942Z,8.80
2022-11-05T04:50:40.976Z,8.80
2022-11-05T04:53:08.143Z,8.90
2022-11-05T04:55:35.305Z,8.90
2022-11-05T04:58:02.302Z,8.80
2022-11-05T05:00:29.395Z,8.80
2022-11-05T05:02:56.459Z,8.80
2022-11-05T05:05:23.544Z,8.80
2022-11-05T05:07:50.587Z,8.70
2022-11-05T05:10:17.729Z,8.70
2022-11-05T05:12:44.871Z,8.70
2022-11-05T05:15:12.858Z,8.60
2022-11-05T05:17:39.902Z,8.60
2022-11-05T05:20:26.047Z,8.60
2022-11-05T05:22:56.161Z,8.60
2022-11-05T05:25:23.447Z,8.50
2022-11-05T05:27:50.731Z,8.40
2022-11-05T05:30:18.089Z,8.50
2022-11-05T05:32:46.118Z,8.50
2022-11-05T05:35:13.342Z,8.50
2022-11-05T05:37:40.701Z,8.50
2022-11-05T05:40:08.965Z,8.50
2022-11-05T05:42:41.764Z,8.50
2022-11-05T05:45:10.922Z,8.40
2022-11-05T05:47:38.055Z,8.50
2022-11-05T05:50:05.523Z,8.60
2022-11-05T05:52:33.237Z,8.40
2022-11-05T05:55:03.006Z,8.40
2022-11-05T05:57:30.065Z,8.30
2022-11-05T05:59:57.135Z,8.30
2022-11-05T06:02:24.310Z,8.30
2022-11-05T06:04:51.542Z,8.20
2022-11-05T06:07:18.665Z,8.20
2022-11-05T06:09:45.646Z,8.30
2022-11-05T06:12:12.807Z,8.20
2022-11-05T06:14:39.788Z,8.20
2022-11-05T06:17:07.500Z,8.20
2022-11-05T06:19:36.089Z,8.20
2022-11-05T06:22:03.138Z,8.10
2022-11-05T06:24:30.131Z,8.10
2022-11-05T06:26:57.114Z,8.10
2022-11-05T06:29:24.306Z,8.10
2022-11-05T06:31:51.294Z,8.20
2022-11-05T06:34:18.368Z,8.10
2022-11-05T06:36:45.406Z,8.10
2022-11-05T06:39:13.187Z,8.10
2022-11-05T06:42:03.945Z,8.20
2022-11-05T06:44:28.422Z,8.20
2022-11-05T06:47:00.511Z,8.20
2022-11-05T06:49:27.682Z,8.20
2022-11-05T06:51:55.208Z,8.20
2022-11-05T06:54:28.094Z,8.20
2022-11-05T06:56:55.290Z,8.30
2022-11-05T06:59:22.515Z,8.30
2022-11-05T07:01:51.508Z,8.30
2022-11-05T07:04:18.662Z,8.40
2022-11-05T07:06:45.681Z,8.50
2022-11-05T07:09:12.781Z,8.50
2022-11-05T07:11:40.193Z,8.50
2022-11-05T07:14:07.202Z,8.50
2022-11-05T07:16:34.293Z,8.50
2022-11-05T07:19:01.347Z,8.50
2022-11-05T07:21:29.208Z,8.60
2022-11-05T07:23:56.359Z,8.60
2022-11-05T07:26:23.442Z,8.60
2022-11-05T07:28:50.463Z,8.60
2022-11-05T07:31:17.410Z,8.60
2022-11-05T07:33:44.483Z,8.60
2022-11-05T07:36:11.516Z,8.80
2022-11-05T07:38:38.575Z,8.80
2022-11-05T07:41:05.589Z,8.90
2022-11-05T07:43:32.777Z,9.00
2022-11-05T07:45:59.892Z,9.10
2022-11-05T07:48:26.877Z,9.10
2022-11-05T07:50:54.652Z,9.20
2022-11-05T07:53:21.736Z,9.20
2022-11-05T07:55:48.767Z,9.20
2022-11-05T07:58:15.812Z,9.30
2022-11-05T08:00:43.154Z,9.30
2022-11-05T08:03:16.147Z,9.50
2022-11-05T08:05:46.150Z,9.40
2022-11-05T08:08:18.301Z,9.40
2022-11-05T08:10:46.397Z,9.50
2022-11-05T08:13:14.429Z,9.50
2022-11-05T08:15:43.192Z,9.60
2022-11-05T08:18:16.604Z,9.60
2022-11-05T08:20:45.438Z,9.60
2022-11-05T08:23:14.363Z,9.60
2022-11-05T08:25:42.063Z,9.70
2022-11-05T08:28:12.088Z,9.60
2022-11-05T08:30:39.307Z,9.60
2022-11-05T08:33:09.960Z,9.60
2022-11-05T08:35:42.768Z,9.70
2022-11-05T08:38:13.773Z,9.70
2022-11-05T08:40:41.487Z,9.80
2022-11-05T08:43:10.748Z,9.80
2022-11-05T08:45:38.938Z,9.90
2022-11-05T08:48:11.603Z,10.10
2022-11-05T08:50:39.809Z,10.20
2022-11-05T08:53:08.224Z,10.30
2022-11-05T08:55:36.453Z,10.40
2022-11-05T08:58:07.616Z,10.50
2022-11-05T09:00:36.867Z,10.50
2022-11-05T09:03:06.450Z,10.50
2022-11-05T09:05:41.890Z,10.70
2022-11-05T09:08:15.118Z,10.50
2022-11-05T09:10:46.036Z,10.60
2022-11-05T09:13:19.451Z,10.60
2022-11-05T09:15:49.103Z,10.60
2022-11-05T09:18:17.290Z,10.70
2022-11-05T09:20:47.801Z,10.70
2022-11-05T09:23:17.221Z,10.80
2022-11-05T09:25:44.836Z,10.70
2022-11-05T09:28:22.371Z,10.70
2022-11-05T09:30:51.545Z,10.80
2022-11-05T09:33:21.704Z,10.70
2022-11-05T09:35:49.008Z,10.80
2022-11-05T09:38:18.509Z,10.90
2022-11-05T09:41:05.182Z,10.90
2022-11-05T09:43:42.501Z,10.90
2022-11-05T09:46:36.574Z,10.90
2022-11-05T09:49:06.829Z,10.90
2022-11-05T09:51:36.471Z,11.00
2022-11-05T09:54:05.876Z,11.00
2022-11-05T09:56:40.723Z,11.10
2022-11-05T09:59:19.083Z,11.10
2022-11-05T10:01:47.367Z,11.20
2022-11-05T10:04:21.483Z,11.40
2022-11-05T10:06:58.833Z,11.60
2022-11-05T10:09:40.182Z,12.00
2022-11-05T10:12:28.670Z,12.20
2022-11-05T10:15:18.579Z,12.30
2022-11-05T10:17:50.258Z,12.30
2022-11-05T10:20:35.892Z,12.40
2022-11-05T10:23:11.387Z,12.50
2022-11-05T10:25:45.447Z,12.70
2022-11-05T10:28:21.258Z,12.60
2022-11-05T10:30:57.248Z,12.70
2022-11-05T10:33:35.513Z,12.70
2022-11-05T10:36:10.235Z,12.70
2022-11-05T10:38:37.658Z,12.80
2022-11-05T10:41:07.657Z,12.80
2022-11-05T10:43:43.007Z,12.80
2022-11-05T10:46:23.210Z,12.90
2022-11-05T10:48:50.367Z,13.00
2022-11-05T10:51:18.240Z,13.10
2022-11-05T10:54:01.930Z,13.10
2022-11-05T10:56:38.090Z,13.10
2022-11-05T10:59:11.930Z,13.20
2022-11-05T11:01:39.947Z,13.20
2022-11-05T11:04:25.403Z,13.10
2022-11-05T11:06:55.703Z,13.10
2022-11-05T11:09:30.507Z,13.10
2022-11-05T11:12:05.379Z,13.20
2022-11-05T11:14:33.177Z,13.30
2022-11-05T11:17:27.930Z,13.30
2022-11-05T11:20:20.505Z,13.30
2022-11-05T11:23:09.867Z,13.20
2022-11-05T11:25:52.897Z,13.10
2022-11-05T11:28:27.470Z,12.90
2022-11-05T11:31:26.905Z,12.80
2022-11-05T11:34:02.562Z,12.70
2022-11-05T11:36:44.521Z,12.60
2022-11-05T11:39:19.541Z,12.50
2022-11-05T11:41:52.161Z,12.50
2022-11-05T11:44:42.137Z,12.40
2022-11-05T11:47:15.130Z,12.30
2022-11-05T11:49:45.398Z,12.30
2022-11-05T11:52:16.024Z,12.20
2022-11-05T11:54:43.134Z,12.20
2022-11-05T11:57:30.432Z,12.20
2022-11-05T12:00:08.792Z,12.20
2022-11-05T12:03:01.554Z,12.20
2022-11-05T12:05:38.277Z,12.10
2022-11-05T12:08:23.408Z,12.00
2022-11-05T12:11:02.946Z,11.90
2022-11-05T12:13:38.943Z,11.80
2022-11-05T12:16:22.582Z,11.80
2022-11-05T12:19:28.439Z,11.80
2022-11-05T12:22:27.617Z,11.80
2022-11-05T12:25:13.043Z,11.80
2022-11-05T12:27:58.646Z,11.90
2022-11-05T12:30:26.021Z,11.70
2022-11-05T12:33:19.312Z,11.70
2022-11-05T12:35:57.644Z,11.70
2022-11-05T12:38:46.968Z,11.60
2022-11-05T12:41:29.710Z,11.60
2022-11-05T12:44:24.524Z,11.60
2022-11-05T12:47:12.661Z,11.70
2022-11-05T12:50:00.773Z,11.70
2022-11-05T12:52:34.535Z,11.70
2022-11-05T12:55:15.415Z,11.70
2022-11-05T12:57:45.582Z,11.70
2022-11-05T13:00:27.817Z,11.70
2022-11-05T13:03:15.724Z,11.70
2022-11-05T13:05:47.799Z,11.80
2022-11-05T13:08:42.997Z,11.90
2022-11-05T13:11:21.303Z,11.90
2022-11-05T13:13:54.226Z,12.00
2022-11-05T13:16:32.660Z,12.00
2022-11-05T13:19:26.879Z,12.10
2022-11-05T13:21:59.529Z,12.10
2022-11-05T13:24:39.155Z,12.30
2022-11-05T13:27:44.554Z,12.30
2022-11-05T13:30:20.841Z,12.20
2022-11-05T13:33:14.200Z,12.20
2022-11-05T13:36:22.076Z,12.20
2022-11-05T13:39:03.502Z,12.20
2022-11-05T13:41:43.564Z,12.20
2022-11-05T13:44:42.507Z,12.20
2022-11-05T13:47:17.180Z,12.20
2022-11-05T13:50:06.053Z,12.20
2022-11-05T13:53:05.047Z,12.20
2022-11-05T13:56:01.776Z,12.10
2022-11-05T13:58:55.461Z,12.10
2022-11-05T14:01:38.577Z,12.00
2022-11-05T14:04:06.425Z,12.00
2022-11-05T14:06:36.410Z,11.90
2022-11-05T14:09:11.947Z,11.90
2022-11-05T14:11:48.195Z,11.90
2022-11-05T14:14:23.669Z,11.90
2022-11-05T14:17:14.062Z,11.90
2022-11-05T14:20:05.545Z,11.80
2022-11-05T14:22:32.522Z,11.80
2022-11-05T14:25:22.965Z,11.70
2022-11-05T14:27:52.431Z,11.70
2022-11-05T14:30:40.967Z,11.70
2022-11-05T14:33:28.621Z,11.70
2022-11-05T14:36:34.719Z,11.70
2022-11-05T14:39:28.994Z,11.60
2022-11-05T14:42:00.834Z,11.60
2022-11-05T14:44:29.218Z,11.60
2022-11-05T14:47:00.930Z,11.50
2022-11-05T14:49:36.405Z,11.50
2022-11-05T14:52:17.004Z,11.50
2022-11-05T14:55:03.264Z,11.50
2022-11-05T14:57:42.545Z,11.50
2022-11-05T15:00:28.282Z,11.40
2022-11-05T15:03:23.093Z,11.40
2022-11-05T15:05:51.703Z,11.40
2022-11-05T15:08:53.669Z,11.30
2022-11-05T15:11:44.210Z,11.30
2022-11-05T15:14:43.445Z,11.40
2022-11-05T15:17:18.494Z,11.30
2022-11-05T15:19:46.968Z,11.30
2022-11-05T15:22:28.186Z,11.20
2022-11-05T15:24:55.619Z,11.20
2022-11-05T15:27:58.479Z,11.20
2022-11-05T15:30:26.634Z,11.20
2022-11-05T15:32:53.761Z,11.10
2022-11-05T15:35:27.747Z,11.10
2022-11-05T15:38:01.788Z,11.10
2022-11-05T15:40:33.422Z,11.10
2022-11-05T15:43:19.994Z,11.10
2022-11-05T15:46:07.016Z,11.10
2022-11-05T15:48:35.625Z,11.00
2022-11-05T15:51:02.737Z,11.00
2022-11-05T15:54:08.318Z,11.00
2022-11-05T15:56:35.931Z,11.00
2022-11-05T15:59:16.059Z,11.00
2022-11-05T16:01:50.158Z,10.90
2022-11-05T16:04:22.158Z,10.90
2022-11-05T16:06:56.121Z,10.90
2022-11-05T16:09:34.287Z,10.90
2022-11-05T16:12:19.716Z,10.90
2022-11-05T16:15:01.802Z,10.80
2022-11-05T16:17:33.399Z,10.80
2022-11-05T16:20:00.712Z,10.80
2022-11-05T16:22:45.169Z,10.80
2022-11-05T16:25:31.362Z,10.70
2022-11-05T16:28:00.401Z,10.70
2022-11-05T16:30:28.149Z,10.60
2022-11-05T16:33:02.585Z,10.70
2022-11-05T16:35:29.789Z,10.70
2022-11-05T16:37:56.876Z,10.60
2022-11-05T16:40:29.822Z,10.60
2022-11-05T16:43:15.239Z,10.70
2022-11-05T16:45:44.341Z,10.60
2022-11-05T16:48:12.728Z,10.60
2022-11-05T16:50:41.874Z,10.70
2022-11-05T16:53:09.284Z,10.70
2022-11-05T16:55:41.591Z,10.70
2022-11-05T16:58:25.122Z,10.70
2022-11-05T17:00:55.832Z,10.60
2022-11-05T17:03:22.882Z,10.70
2022-11-05T17:05:49.955Z,10.70
2022-11-05T17:08:17.367Z,10.70
2022-11-05T17:10:47.177Z,10.60
2022-11-05T17:13:18.876Z,10.60
2022-11-05T17:15:47.973Z,10.60
2022-11-05T17:18:18.938Z,10.70
2022-11-05T17:20:54.704Z,10.50
2022-11-05T17:23:22.954Z,10.50
2022-11-05T17:25:52.923Z,10.40
2022-11-05T17:28:21.252Z,10.50
2022-11-05T17:30:52.157Z,10.40
2022-11-05T17:33:22.935Z,10.40
2022-11-05T17:35:50.495Z,10.40
2022-11-05T17:38:17.864Z,10.40
2022-11-05T17:40:45.111Z,10.40
2022-11-05T17:43:12.558Z,10.40
2022-11-05T17:45:45.571Z,10.40
2022-11-05T17:48:13.254Z,10.40
2022-11-05T17:50:42.073Z,10.40
2022-11-05T17:53:09.842Z,10.30
2022-11-05T17:55:37.312Z,10.40
2022-11-05T17:58:04.377Z,10.40
2022-11-05T18:00:31.532Z,10.30
2022-11-05T18:02:58.552Z,10.40
2022-11-05T18:05:27.836Z,10.30
2022-11-05T18:07:55.594Z,10.40
2022-11-05T18:10:23.514Z,10.40
2022-11-05T18:12:50.911Z,10.40
2022-11-05T18:15:18.293Z,10.40
2022-11-05T18:17:46.294Z,10.40
2022-11-05T18:20:18.989Z,10.40
2022-11-05T18:22:49.998Z,10.40
2022-11-05T18:25:18.491Z,10.40
2022-11-05T18:27:46.464Z,10.40
2022-11-05T18:30:15.575Z,10.40
2022-11-05T18:32:44.617Z,10.40
2022-11-05T18:35:13.548Z,10.40
2022-11-05T18:37:40.813Z,10.50
2022-11-05T18:40:08.714Z,10.50
2022-11-05T18:42:35.805Z,10.50
2022-11-05T18:45:03.934Z,10.50
2022-11-05T18:47:32.526Z,10.50
2022-11-05T18:50:00.773Z,10.50
2022-11-05T18:52:28.432Z,10.50
2022-11-05T18:54:55.535Z,10.50
2022-11-05T18:57:22.598Z,10.50
2022-11-05T18:59:49.764Z,10.50
2022-11-05T19:02:17.350Z,10.50
2022-11-05T19:05:06.682Z,10.50
2022-11-05T19:07:35.178Z,10.50
2022-11-05T19:10:02.237Z,10.50
2022-11-05T19:12:29.370Z,10.50
2022-11-05T19:15:02.144Z,10.50
2022-11-05T19:17:31.834Z,10.60
2022-11-05T19:19:58.847Z,10.50
2022-11-05T19:22:26.012Z,10.50
2022-11-05T19:24:53.293Z,10.50
2022-11-05T19:27:20.385Z,10.50
2022-11-05T19:29:47.740Z,10.60
2022-11-05T19:32:15.494Z,10.60
2022-11-05T19:34:42.479Z,10.60
2022-11-05T19:37:09.609Z,10.60
2022-11-05T19:39:36.704Z,10.60
2022-11-05T19:42:04.779Z,10.60
2022-11-05T19:44:32.403Z,10.60
2022-11-05T19:46:59.414Z,10.60
2022-11-05T19:49:28.661Z,10.70
2022-11-05T19:51:57.091Z,10.60
2022-11-05T19:54:24.169Z,10.60
2022-11-05T19:56:53.961Z,10.60
2022-11-05T19:59:21.100Z,10.60
2022-11-05T20:01:51.027Z,10.60
2022-11-05T20:04:18.240Z,10.70
2022-11-05T20:06:45.284Z,10.70
2022-11-05T20:09:22.704Z,10.60
2022-11-05T20:11:54.744Z,10.70
2022-11-05T20:14:24.175Z,10.60
2022-11-05T20:16:51.227Z,10.60
2022-11-05T20:19:20.175Z,10.70
2022-11-05T20:21:47.440Z,10.70
2022-11-05T20:24:22.328Z,10.70
2022-11-05T20:26:57.758Z,10.60
2022-11-05T20:29:30.624Z,10.70
2022-11-05T20:32:02.409Z,10.70
2022-11-05T20:34:30.395Z,10.80
2022-11-05T20:36:57.673Z,10.70
2022-11-05T20:39:24.764Z,10.70
2022-11-05T20:41:52.865Z,10.70
2022-11-05T20:44:20.078Z,10.70
2022-11-05T20:46:47.085Z,10.80
2022-11-05T20:49:14.157Z,10.80
2022-11-05T20:51:41.568Z,10.70
2022-11-05T20:54:10.196Z,10.80
2022-11-05T20:56:37.379Z,10.70
2022-11-05T20:59:05.361Z,10.70
2022-11-05T21:01:34.132Z,10.70
2022-11-05T21:04:02.873Z,10.70
2022-11-05T21:06:30.594Z,10.70
2022-11-05T21:08:57.890Z,10.70
2022-11-05T21:11:24.894Z,10.70
2022-11-05T21:13:52.145Z,10.70
2022-11-05T21:16:20.388Z,10.80
2022-11-05T21:18:47.881Z,10.70
2022-11-05T21:21:19.832Z,10.80
2022-11-05T21:23:47.204Z,10.80
2022-11-05T21:26:16.850Z,10.70
2022-11-05T21:28:44.039Z,10.70
2022-11-05T21:31:11.278Z,10.70
2022-11-05T21:33:38.612Z,10.70
2022-11-05T21:36:11.540Z,10.80
2022-11-05T21:38:38.874Z,10.70
2022-11-05T21:41:07.125Z,10.70
2022-11-05T21:43:34.777Z,10.70
2022-11-05T21:46:04.270Z,10.70
2022-11-05T21:48:34.487Z,10.70
2022-11-05T21:51:20.167Z,10.70
2022-11-05T21:54:05.750Z,10.70
2022-11-05T21:56:51.983Z,10.70
2022-11-05T21:59:42.442Z,10.70
2022-11-05T22:02:12.033Z,10.70
2022-11-05T22:04:42.199Z,10.70
2022-11-05T22:07:10.931Z,10.80
2022-11-05T22:09:38.043Z,10.80
2022-11-05T22:12:05.545Z,10.80
2022-11-05T22:14:32.947Z,10.80
2022-11-05T22:17:00.157Z,10.80
2022-11-05T22:19:27.907Z,10.80
2022-11-05T22:21:54.908Z,10.80
2022-11-05T22:24:22.451Z,10.80
2022-11-05T22:26:50.126Z,10.80
2022-11-05T22:29:17.723Z,10.90
2022-11-05T22:31:45.100Z,10.90
2022-11-05T22:34:13.513Z,10.90
2022-11-05T22:36:40.688Z,10.90
2022-11-05T22:39:07.806Z,10.90
2022-11-05T22:41:34.869Z,10.90
2022-11-05T22:44:03.304Z,10.80
2022-11-05T22:46:30.659Z,10.90
2022-11-05T22:48:59.184Z,10.90
2022-11-05T22:51:29.624Z,10.90
2022-11-05T22:53:57.330Z,10.90
2022-11-05T22:56:27.080Z,10.90
2022-11-05T22:58:54.521Z,10.90
2022-11-05T23:01:23.387Z,10.90
2022-11-05T23:03:53.159Z,11.00
2022-11-05T23:06:41.336Z,10.90
2022-11-05T23:09:45.920Z,10.90
2022-11-05T23:12:27.673Z,10.90
2022-11-05T23:14:56.746Z,10.90
2022-11-05T23:17:42.887Z,10.70
2022-11-05T23:20:37.896Z,10.80
2022-11-05T23:23:28.637Z,10.80
2022-11-05T23:26:00.164Z,10.70
2022-11-05T23:28:27.374Z,10.70
2022-11-05T23:31:12.960Z,10.70
2022-11-05T23:33:39.999Z,10.70
2022-11-05T23:36:30.845Z,10.60
2022-11-05T23:38:57.894Z,10.60
2022-11-05T23:41:43.335Z,10.60
2022-11-05T23:44:29.033Z,10.70
2022-11-05T23:47:14.541Z,10.60
2022-11-05T23:49:41.501Z,10.60
2022-11-05T23:52:08.509Z,10.50
2022-11-05T23:54:35.497Z,10.50
2022-11-05T23:57:02.537Z,10.50
2022-11-05T23:59:29.550Z,10.50
